Hannibal, WI (54439)

4:06 PM CDT on August 20, 2014 (GMT -0500)
Rusk County | Change Station
CLOSE
Current Station
Airport
Location: Ladysmith,
Elevation: 1237 ft
Nearby Weather Stations

Elev 1237 ft 45.49 °N, 91.00 °W | Updated 11 minutes ago

Overcast
Overcast
73 °F
Feels Like 73 °F
N
4
Wind Variable Wind from WSW

Today
High -- | Low -- °F
--% Chance of Precip.
Yesterday
High -- | Low -- °F
Precip. -- in
6:10 AM 8:01 PM
Waning Crescent, 19% visible
Pressure 29.93 in
Visibility 10.0 miles
Clouds Scattered Clouds 2400 ft
Overcast 3500 ft
Dew Point 61 °F
Humidity 67%
Rainfall 0.00 in
Snow Depth Not available.
UV 2 out of 12
Pollen 9.70 out of 12
Air Quality Not available.
Flu Activity Not available.
METAR KRCX 202055Z AUTO 24003KT 10SM SCT024 OVC035 23/16 A2993 RMK AO2 T02260161

More Conditions Fewer Conditions

Pressure 29.93 in
Visibility 10.0 miles
Clouds Scattered Clouds 2400 ft
Overcast 3500 ft
Dew Point 61 °F
Humidity 67%
Rainfall 0.00 in
Snow Depth Not available.
UV 2 out of 12
Pollen 9.70 out of 12
Air Quality Not available.
Flu Activity Not available.
METAR KRCX 202055Z AUTO 24003KT 10SM SCT024 OVC035 23/16 A2993 RMK AO2 T02260161

More Conditions Fewer Conditions

10-Day Weather Forecast

Almanac

Astronomy

Aug. 20, 2014 Rise Set
Actual Time 6:10 AM CDT 8:01 PM CDT
Civil Twilight 5:38 AM CDT 8:33 PM CDT
Nautical Twilight 4:59 AM CDT 9:11 PM CDT
Astronomical Twilight 4:17 AM CDT 9:53 PM CDT
Moon 1:45 AM CDT 4:51 PM CDT
Length of Visible Light 14h 54m
Length of Day
13h 51m
Tomorrow will be 2m 55s shorter.
Waning Crescent, 19% of the Moon is Illuminated
Today
Waning Crescent
Aug 25
New
Sep 2
First Quarter
Sep 8
Full
Sep 15
Last Quarter

Today's Extremes

State Highs State Lows

Community

WunderPhotos

Upload Photos

1,745,758 photos uploaded!

WunderBlogs® & News

Nearby

Snow Depth

Station Depth Elevation
No new snow has been reported.

Earthquake Activity

City Distance Mag. Time & Date
No recent earthquake activity has been reported nearby.
Minimum magnitude displayed is 2.5.

Coastal Water Temperatures

Place Temperature
No Stations Reporting

Nearby Weather Stations